Time;durP1;ratioP1;P1;durP2;ratioP2;P2;SDS_P1;SDS_P2;PMS_P1;PMS_P2;Temp;Humidity;BMP_temperature;BMP_pressure;BME280_temperature;BME280_humidity;BME280_pressure;Samples;Min_cycle;Max_cycle;Signal;HPM_P1;HPM_P2
2023/01/28 00:02:00;;;;;;;;;;;;;;;15.89;71.32;100486.19;7404953;19;1749;-55
2023/01/28 00:04:29;;;;;;;;;;;;;;;15.91;71.35;100486.91;7404504;19;1621;-55
2023/01/28 00:06:57;;;;;;;;;;;;;;;15.91;71.57;100481.56;7405777;19;1690;-55
2023/01/28 00:09:28;;;;;;;;;;;;;;;15.90;71.54;100483.41;7405314;19;2040;-55
2023/01/28 00:11:57;;;;;;;;;;;;;;;15.90;71.23;100502.06;7404761;19;1508;-55
2023/01/28 00:14:26;;;;;;;;;;;;;;;15.89;71.34;100483.50;7405166;19;1858;-55
2023/01/28 00:16:57;;;;;;;;;;;;;;;15.89;71.38;100487.03;7405804;19;1393;-55
2023/01/28 00:19:25;;;;;;;;;;;;;;;15.90;71.01;100495.91;7405954;19;1429;-55
2023/01/28 00:21:53;;;;;;;;;;;;;;;15.85;71.30;100487.41;7405874;19;1585;-56
2023/01/28 00:24:23;;;;;;;;;;;;;;;15.86;71.03;100495.28;7404816;19;1658;-56
2023/01/28 00:26:52;;;;;;;;;;;;;;;15.84;71.26;100502.56;7402566;19;1562;-55
2023/01/28 00:29:20;;;;;;;;;;;;;;;15.85;71.22;100498.06;7405165;19;1716;-55
2023/01/28 00:31:49;;;;;;;;;;;;;;;15.89;71.12;100505.69;7405338;19;1301;-56
2023/01/28 00:34:25;;;;;;;;;;;;;;;15.90;71.12;100502.06;7405216;19;2650;-56
2023/01/28 00:36:56;;;;;;;;;;;;;;;15.85;71.06;100514.91;7404951;19;2141;-56
2023/01/28 00:39:27;;;;;;;;;;;;;;;15.87;71.15;100496.13;7404887;19;1753;-55
2023/01/28 00:41:55;;;;;;;;;;;;;;;15.85;70.96;100511.41;7403113;19;1874;-55
2023/01/28 00:44:25;;;;;;;;;;;;;;;15.82;71.18;100509.81;7404353;19;1561;-55
2023/01/28 00:46:53;;;;;;;;;;;;;;;15.80;71.35;100510.94;7404262;19;1477;-54
2023/01/28 00:49:25;;;;;;;;;;;;;;;15.78;70.99;100511.03;7403374;19;1776;-56
2023/01/28 00:51:53;;;;;;;;;;;;;;;15.75;71.13;100516.59;7403969;19;1484;-55
2023/01/28 00:54:21;;;;;;;;;;;;;;;15.75;71.33;100515.75;7403988;19;1850;-56
2023/01/28 00:56:54;;;;;;;;;;;;;;;15.77;71.22;100532.47;7400668;19;1604;-55
2023/01/28 00:59:23;;;;;;;;;;;;;;;15.74;70.99;100533.59;7403345;19;1557;-55
2023/01/28 01:01:53;;;;;;;;;;;;;;;15.73;71.42;100525.69;7402547;19;1614;-55
2023/01/28 01:04:34;;;;;;;;;;;;;;;15.71;71.15;100534.63;7404694;19;1641;-55
2023/01/28 01:07:03;;;;;;;;;;;;;;;15.71;71.51;100537.28;7402530;19;1276;-55
2023/01/28 01:09:31;;;;;;;;;;;;;;;15.70;71.33;100530.28;7402759;19;1588;-55
2023/01/28 01:12:00;;;;;;;;;;;;;;;15.70;71.39;100526.75;7402820;19;2000;-55
2023/01/28 01:14:29;;;;;;;;;;;;;;;15.75;70.91;100534.41;7402416;19;1847;-55
2023/01/28 01:16:58;;;;;;;;;;;;;;;15.73;71.27;100541.69;7401435;19;1766;-55
2023/01/28 01:19:30;;;;;;;;;;;;;;;15.74;71.37;100532.72;7403239;19;1747;-56
2023/01/28 01:22:00;;;;;;;;;;;;;;;15.70;70.98;100540.94;7403609;19;1359;-56
2023/01/28 01:24:32;;;;;;;;;;;;;;;15.71;71.06;100539.09;7402039;19;1509;-55
2023/01/28 01:27:00;;;;;;;;;;;;;;;15.69;71.23;100541.88;7403426;19;1724;-55
2023/01/28 01:29:30;;;;;;;;;;;;;;;15.63;71.05;100546.84;7402940;19;1725;-55
2023/01/28 01:31:58;;;;;;;;;;;;;;;15.63;71.28;100549.53;7403041;19;1616;-56
2023/01/28 01:34:29;;;;;;;;;;;;;;;15.63;71.49;100537.03;7403297;19;1508;-56
2023/01/28 01:36:58;;;;;;;;;;;;;;;15.66;71.36;100557.28;7403669;19;1254;-56
2023/01/28 01:39:27;;;;;;;;;;;;;;;15.67;71.33;100551.81;7402728;19;1538;-55
2023/01/28 01:41:57;;;;;;;;;;;;;;;15.64;70.92;100559.22;7403086;19;1485;-55
2023/01/28 01:44:40;;;;;;;;;;;;;;;15.69;71.04;100559.69;7402162;19;1824;-56
2023/01/28 01:47:10;;;;;;;;;;;;;;;15.64;71.19;100556.56;7402604;19;1546;-55
2023/01/28 01:49:42;;;;;;;;;;;;;;;15.65;71.19;100563.56;7402358;19;1534;-55
2023/01/28 01:52:12;;;;;;;;;;;;;;;15.61;71.11;100554.13;7403066;19;1489;-55
2023/01/28 01:54:41;;;;;;;;;;;;;;;15.63;71.16;100566.34;7401377;19;1842;-56
2023/01/28 01:57:11;;;;;;;;;;;;;;;15.57;71.26;100558.00;7401398;19;2129;-55
2023/01/28 01:59:41;;;;;;;;;;;;;;;15.58;71.18;100570.34;7401916;19;1724;-55
2023/01/28 02:02:11;;;;;;;;;;;;;;;15.58;71.27;100570.34;7402970;19;1841;-55
2023/01/28 02:04:44;;;;;;;;;;;;;;;15.57;71.37;100574.81;7401946;19;1757;-55
2023/01/28 02:07:14;;;;;;;;;;;;;;;15.55;71.45;100576.75;7402316;19;1484;-55
2023/01/28 02:09:43;;;;;;;;;;;;;;;15.56;71.35;100577.59;7401926;19;1557;-55
2023/01/28 02:12:13;;;;;;;;;;;;;;;15.52;71.07;100571.69;7401295;19;1498;-55
2023/01/28 02:14:45;;;;;;;;;;;;;;;15.51;71.48;100569.97;7402321;19;1568;-55
2023/01/28 02:17:14;;;;;;;;;;;;;;;15.53;71.25;100584.03;7401329;19;1546;-55
2023/01/28 02:19:49;;;;;;;;;;;;;;;15.54;71.16;100590.19;7400944;19;1518;-55
2023/01/28 02:22:23;;;;;;;;;;;;;;;15.53;71.09;100589.34;7401354;19;1577;-55
2023/01/28 02:25:08;;;;;;;;;;;;;;;15.50;71.27;100587.78;7401286;19;1666;-55
2023/01/28 02:27:39;;;;;;;;;;;;;;;15.50;71.09;100590.44;7400573;19;1804;-55
2023/01/28 02:30:12;;;;;;;;;;;;;;;15.47;71.04;100592.50;7401851;19;1539;-55
2023/01/28 02:32:45;;;;;;;;;;;;;;;15.45;71.09;100568.63;7400946;19;1539;-55
2023/01/28 02:35:17;;;;;;;;;;;;;;;15.46;71.29;100599.66;7401274;19;1860;-56
2023/01/28 02:37:49;;;;;;;;;;;;;;;15.43;71.10;100599.84;7401575;19;1619;-56
2023/01/28 02:40:20;;;;;;;;;;;;;;;15.44;71.26;100600.72;7401701;19;1900;-56
2023/01/28 02:42:50;;;;;;;;;;;;;;;15.42;71.06;100605.31;7400131;19;1686;-56
2023/01/28 02:45:23;;;;;;;;;;;;;;;15.43;71.20;100599.03;7401078;19;2068;-55
2023/01/28 02:47:57;;;;;;;;;;;;;;;15.47;71.01;100604.00;7400865;19;2426;-56
2023/01/28 02:50:28;;;;;;;;;;;;;;;15.69;70.09;100600.53;7401140;19;1470;-55
2023/01/28 02:56:00;;;;;;;;;;;;;;;17.94;63.60;100587.66;7400550;19;1853;-56
2023/01/28 02:58:31;;;;;;;;;;;;;;;18.73;61.49;100572.75;7401704;19;1458;-55
2023/01/28 03:01:04;;;;;;;;;;;;;;;18.94;61.02;100569.97;7397751;19;1594;-56
2023/01/28 03:03:37;;;;;;;;;;;;;;;19.30;60.46;100576.47;7398397;19;1871;-55
2023/01/28 03:06:09;;;;;;;;;;;;;;;19.47;59.61;100586.47;7401132;19;1795;-55
2023/01/28 03:38:40;;;;;;;;;;;;;;;17.89;64.34;100617.50;7398671;19;741;-55
2023/01/28 03:41:11;;;;;;;;;;;;;;;17.45;65.42;100621.28;7403141;19;978;-55
2023/01/28 03:43:40;;;;;;;;;;;;;;;17.12;66.49;100612.41;7404730;19;1886;-55
2023/01/28 03:46:08;;;;;;;;;;;;;;;16.96;66.82;100617.31;7403314;19;1490;-55
2023/01/28 03:48:40;;;;;;;;;;;;;;;17.31;66.46;100617.06;7403202;19;1069;-55
2023/01/28 03:51:08;;;;;;;;;;;;;;;18.32;63.31;100612.06;7407734;19;1386;-55
2023/01/28 03:53:39;;;;;;;;;;;;;;;19.59;59.79;100619.34;7403874;19;2027;-55
2023/01/28 03:56:07;;;;;;;;;;;;;;;19.90;58.68;100604.94;7401919;19;1845;-55
2023/01/28 03:58:52;;;;;;;;;;;;;;;20.13;58.38;100603.56;7406261;19;1018;-55
2023/01/28 04:01:20;;;;;;;;;;;;;;;19.22;60.58;100606.66;7406006;19;1528;-55
2023/01/28 04:03:52;;;;;;;;;;;;;;;18.25;63.31;100627.84;7403084;19;1360;-55
2023/01/28 04:06:22;;;;;;;;;;;;;;;17.65;65.55;100630.28;7402315;19;1224;-55
2023/01/28 04:08:52;;;;;;;;;;;;;;;18.04;64.09;100638.56;7403796;19;1862;-55
2023/01/28 04:11:24;;;;;;;;;;;;;;;18.53;62.83;100646.84;7404895;19;1549;-55
2023/01/28 04:13:55;;;;;;;;;;;;;;;18.84;62.06;100634.25;7404682;19;1695;-55
2023/01/28 04:16:29;;;;;;;;;;;;;;;18.89;61.61;100648.09;7400641;19;1861;-55
2023/01/28 04:19:00;;;;;;;;;;;;;;;18.87;61.89;100623.28;7402028;19;1124;-55
2023/01/28 04:21:29;;;;;;;;;;;;;;;18.90;61.97;100631.03;7402348;19;971;-55
2023/01/28 04:23:57;;;;;;;;;;;;;;;18.91;61.43;100639.94;7403595;19;952;-55
2023/01/28 04:26:27;;;;;;;;;;;;;;;18.68;62.11;100616.88;7406104;19;1436;-55
2023/01/28 04:28:57;;;;;;;;;;;;;;;18.57;62.25;100629.50;7406089;19;1641;-55
2023/01/28 04:31:26;;;;;;;;;;;;;;;18.51;62.37;100633.56;7405818;19;2019;-55
2023/01/28 04:33:54;;;;;;;;;;;;;;;18.61;62.25;100641.66;7405195;19;1846;-55
2023/01/28 04:36:25;;;;;;;;;;;;;;;18.66;61.95;100634.91;7404048;19;1869;-55
2023/01/28 04:38:56;;;;;;;;;;;;;;;18.61;62.33;100653.19;7403301;19;1701;-55
2023/01/28 04:41:25;;;;;;;;;;;;;;;18.65;62.06;100659.97;7402230;19;2045;-56
2023/01/28 04:43:53;;;;;;;;;;;;;;;18.62;62.45;100646.00;7403513;19;1619;-55
2023/01/28 04:46:22;;;;;;;;;;;;;;;18.82;61.80;100658.53;7402221;19;1621;-55
2023/01/28 04:48:53;;;;;;;;;;;;;;;18.90;61.34;100644.44;7401153;19;1773;-55
2023/01/28 04:51:22;;;;;;;;;;;;;;;18.95;61.46;100647.53;7403854;19;1439;-55
2023/01/28 04:53:54;;;;;;;;;;;;;;;18.99;60.84;100654.31;7402233;19;1426;-55
2023/01/28 04:56:22;;;;;;;;;;;;;;;18.90;61.39;100651.63;7400288;19;1847;-55
2023/01/28 04:58:50;;;;;;;;;;;;;;;18.97;61.29;100666.16;7400601;19;1140;-55
2023/01/28 05:01:19;;;;;;;;;;;;;;;18.96;61.21;100651.94;7400699;19;1591;-55
2023/01/28 05:03:47;;;;;;;;;;;;;;;18.86;61.41;100653.72;7402255;19;1577;-55
2023/01/28 05:06:15;;;;;;;;;;;;;;;18.72;61.81;100656.75;7401331;19;1053;-55
2023/01/28 05:08:45;;;;;;;;;;;;;;;18.62;61.73;100659.41;7401635;19;1805;-54
2023/01/28 05:11:17;;;;;;;;;;;;;;;18.58;62.02;100657.97;7401032;19;1804;-55
2023/01/28 05:13:48;;;;;;;;;;;;;;;18.51;62.43;100659.50;7401666;19;1837;-55
2023/01/28 05:16:17;;;;;;;;;;;;;;;18.49;62.10;100673.88;7400382;19;1866;-55
2023/01/28 05:18:50;;;;;;;;;;;;;;;18.42;62.45;100656.66;7402223;19;1431;-55
2023/01/28 05:21:18;;;;;;;;;;;;;;;18.41;62.48;100671.00;7400279;19;1044;-55
2023/01/28 05:23:49;;;;;;;;;;;;;;;18.47;62.29;100659.78;7401980;19;1300;-55
2023/01/28 05:26:18;;;;;;;;;;;;;;;18.50;62.07;100674.72;7400267;19;955;-55
2023/01/28 05:28:50;;;;;;;;;;;;;;;18.49;62.36;100683.75;7403997;19;2568;-55
2023/01/28 05:31:18;;;;;;;;;;;;;;;18.56;62.18;100686.72;7400016;19;958;-55
2023/01/28 05:33:48;;;;;;;;;;;;;;;18.71;61.86;100679.19;7403604;19;1794;-56
2023/01/28 05:36:17;;;;;;;;;;;;;;;18.83;60.68;100676.28;7402955;19;1847;-54
2023/01/28 05:38:46;;;;;;;;;;;;;;;18.79;60.48;100673.97;7400434;19;1808;-55
2023/01/28 05:41:14;;;;;;;;;;;;;;;18.94;60.17;100687.88;7398102;19;1884;-55
2023/01/28 05:43:45;;;;;;;;;;;;;;;19.05;59.58;100687.75;7402668;19;1430;-55
2023/01/28 05:46:16;;;;;;;;;;;;;;;18.80;59.42;100697.13;7398064;19;2136;-54
2023/01/28 05:48:47;;;;;;;;;;;;;;;18.82;59.21;100692.47;7402775;19;1008;-55
2023/01/28 05:51:16;;;;;;;;;;;;;;;18.11;60.84;100693.25;7399611;19;1031;-55
2023/01/28 05:53:48;;;;;;;;;;;;;;;17.59;62.84;100697.66;7400146;19;1042;-55
2023/01/28 05:56:28;;;;;;;;;;;;;;;17.19;63.68;100703.59;7397574;19;1836;-55
2023/01/28 05:58:56;;;;;;;;;;;;;;;16.95;64.02;100707.28;7398665;19;1034;-55
2023/01/28 06:01:27;;;;;;;;;;;;;;;16.96;64.90;100702.78;7397536;19;1829;-55
2023/01/28 06:04:01;;;;;;;;;;;;;;;17.59;62.91;100709.19;7398650;19;1108;-55
2023/01/28 06:06:29;;;;;;;;;;;;;;;18.64;60.05;100706.50;7398666;19;1067;-55
2023/01/28 06:09:01;;;;;;;;;;;;;;;19.10;58.75;100706.09;7400000;19;1688;-55
2023/01/28 06:11:32;;;;;;;;;;;;;;;18.95;59.08;100694.94;7402465;19;1094;-55
2023/01/28 06:14:02;;;;;;;;;;;;;;;18.96;59.33;100685.91;7398673;19;1416;-55
2023/01/28 06:16:33;;;;;;;;;;;;;;;18.96;59.38;100710.88;7398472;19;1850;-56
2023/01/28 06:19:02;;;;;;;;;;;;;;;19.00;59.21;100709.63;7402315;19;1371;-55
2023/01/28 06:21:31;;;;;;;;;;;;;;;18.89;59.71;100741.88;7402780;19;1442;-54
2023/01/28 06:24:00;;;;;;;;;;;;;;;18.67;60.08;100711.56;7400653;19;1010;-55
2023/01/28 06:26:46;;;;;;;;;;;;;;;18.61;60.08;100725.50;7398287;19;1081;-55
2023/01/28 06:29:15;;;;;;;;;;;;;;;18.57;60.73;100726.75;7401256;19;1533;-55
2023/01/28 06:31:52;;;;;;;;;;;;;;;18.56;60.36;100726.88;7397899;19;1544;-55
2023/01/28 06:34:20;;;;;;;;;;;;;;;18.69;59.88;100720.31;7400435;19;1539;-55
2023/01/28 06:36:49;;;;;;;;;;;;;;;18.72;60.37;100731.75;7397284;19;1822;-55
2023/01/28 06:39:20;;;;;;;;;;;;;;;18.73;60.37;100723.59;7400971;19;1610;-56
2023/01/28 06:41:48;;;;;;;;;;;;;;;18.67;60.43;100724.97;7399312;19;1713;-55
2023/01/28 06:44:23;;;;;;;;;;;;;;;18.69;60.69;100738.22;7397324;19;1058;-55
2023/01/28 06:46:55;;;;;;;;;;;;;;;18.74;61.12;100735.16;7401022;19;1677;-56
2023/01/28 06:49:24;;;;;;;;;;;;;;;18.65;61.50;100737.66;7401128;19;1538;-56
2023/01/28 06:51:52;;;;;;;;;;;;;;;18.71;61.52;100746.16;7399295;19;1034;-55
2023/01/28 06:54:21;;;;;;;;;;;;;;;18.75;61.45;100731.50;7399217;19;2015;-57
2023/01/28 06:56:50;;;;;;;;;;;;;;;18.79;61.67;100740.97;7397041;19;1838;-55
2023/01/28 06:59:23;;;;;;;;;;;;;;;18.81;61.51;100731.81;7396910;19;1046;-55
2023/01/28 07:02:01;;;;;;;;;;;;;;;18.82;61.57;100744.25;7397022;19;1137;-55
2023/01/28 07:04:33;;;;;;;;;;;;;;;18.74;61.73;100751.22;7398346;19;1232;-55
2023/01/28 07:07:01;;;;;;;;;;;;;;;18.74;62.10;100757.44;7396721;19;1306;-55
2023/01/28 07:09:36;;;;;;;;;;;;;;;18.84;61.72;100754.81;7399972;19;1833;-55
2023/01/28 07:12:13;;;;;;;;;;;;;;;18.94;62.11;100752.19;7397040;19;958;-56
2023/01/28 07:14:50;;;;;;;;;;;;;;;18.96;61.73;100769.84;7401821;19;1046;-55
2023/01/28 07:17:27;;;;;;;;;;;;;;;18.96;61.32;100767.16;7402792;19;1848;-55
2023/01/28 07:20:13;;;;;;;;;;;;;;;18.95;61.83;100760.09;7404599;19;1009;-55
2023/01/28 07:22:43;;;;;;;;;;;;;;;19.01;62.14;100778.31;7403789;19;1053;-55
2023/01/28 07:25:11;;;;;;;;;;;;;;;18.98;62.74;100781.28;7404142;19;990;-55
2023/01/28 07:30:32;;;;;;;;;;;;;;;18.96;63.03;100783.22;7401342;19;1009;-55
2023/01/28 07:33:08;;;;;;;;;;;;;;;18.87;62.47;100778.66;7405502;19;2085;-54
2023/01/28 07:35:39;;;;;;;;;;;;;;;18.84;62.34;100792.31;7407886;19;1139;-55
2023/01/28 07:38:09;;;;;;;;;;;;;;;18.84;62.07;100793.19;7402258;19;1897;-55
2023/01/28 07:40:37;;;;;;;;;;;;;;;18.95;61.51;100802.13;7403263;19;1595;-55
2023/01/28 07:43:10;;;;;;;;;;;;;;;18.85;62.19;100818.16;7403398;19;1980;-54
2023/01/28 07:45:39;;;;;;;;;;;;;;;18.94;61.84;100801.28;7406998;19;2036;-54
2023/01/28 07:48:13;;;;;;;;;;;;;;;18.92;62.18;100813.09;7407691;19;1317;-55
2023/01/28 07:50:41;;;;;;;;;;;;;;;18.91;61.94;100806.06;7407028;19;1639;-54
2023/01/28 07:53:11;;;;;;;;;;;;;;;18.83;62.14;100807.56;7407516;19;1417;-55
2023/01/28 07:55:39;;;;;;;;;;;;;;;18.80;62.17;100809.66;7404639;19;1428;-54
2023/01/28 07:58:08;;;;;;;;;;;;;;;18.83;61.99;100807.56;7403116;19;1865;-55
2023/01/28 08:00:38;;;;;;;;;;;;;;;18.80;62.39;100820.38;7405285;19;1608;-55
2023/01/28 08:03:08;;;;;;;;;;;;;;;18.74;62.29;100807.47;7405437;19;1416;-55
2023/01/28 08:05:44;;;;;;;;;;;;;;;18.71;62.67;100810.44;7405924;19;1669;-54
2023/01/28 08:08:13;;;;;;;;;;;;;;;18.71;63.35;100807.75;7402876;19;1686;-55
2023/01/28 08:10:42;;;;;;;;;;;;;;;18.65;64.04;100809.13;7406259;19;1387;-56
2023/01/28 08:13:11;;;;;;;;;;;;;;;18.60;65.17;100796.16;7405822;19;1523;-53
2023/01/28 08:15:44;;;;;;;;;;;;;;;18.56;66.74;100812.59;7402296;19;1112;-53
2023/01/28 08:18:13;;;;;;;;;;;;;;;18.65;66.25;100801.09;7404576;19;1863;-52
2023/01/28 08:20:46;;;;;;;;;;;;;;;18.86;66.09;100811.78;7404243;19;1661;-53
2023/01/28 08:23:15;;;;;;;;;;;;;;;18.56;67.08;100817.94;7406318;19;1783;-53
2023/01/28 08:25:43;;;;;;;;;;;;;;;17.96;68.15;100815.81;7401930;19;1856;-54
2023/01/28 08:28:12;;;;;;;;;;;;;;;17.61;70.15;100840.94;7404269;19;1858;-54
2023/01/28 08:30:41;;;;;;;;;;;;;;;17.39;70.58;100844.50;7404349;19;1757;-53
2023/01/28 08:33:10;;;;;;;;;;;;;;;17.28;71.59;100847.16;7402968;19;1762;-53
2023/01/28 08:35:40;;;;;;;;;;;;;;;17.26;71.53;100849.09;7404659;19;1618;-52
2023/01/28 08:38:12;;;;;;;;;;;;;;;17.21;71.79;100840.59;7401612;19;1859;-53
2023/01/28 08:40:40;;;;;;;;;;;;;;;17.03;72.23;100843.78;7402782;19;1867;-52
2023/01/28 08:43:08;;;;;;;;;;;;;;;16.86;72.38;100860.25;7402734;19;1725;-52
2023/01/28 08:45:37;;;;;;;;;;;;;;;16.77;72.63;100858.25;7402354;19;1811;-53
2023/01/28 08:48:06;;;;;;;;;;;;;;;16.73;72.71;100846.13;7397734;19;1793;-52
2023/01/28 08:50:35;;;;;;;;;;;;;;;16.68;72.32;100839.31;7400491;19;2072;-53
2023/01/28 08:53:04;;;;;;;;;;;;;;;16.62;73.32;100849.63;7400992;19;1885;-53
2023/01/28 08:55:35;;;;;;;;;;;;;;;16.53;73.21;100845.81;7400140;19;1208;-53
2023/01/28 08:58:03;;;;;;;;;;;;;;;16.53;73.36;100847.66;7400109;19;3248;-53
2023/01/28 09:00:32;;;;;;;;;;;;;;;16.44;73.36;100858.06;7400314;19;2045;-53
2023/01/28 09:03:00;;;;;;;;;;;;;;;16.41;73.18;100852.09;7400309;19;2019;-52
2023/01/28 09:05:30;;;;;;;;;;;;;;;16.40;73.22;100855.75;7403529;19;1525;-53
2023/01/28 09:07:59;;;;;;;;;;;;;;;16.31;74.05;100851.94;7405036;19;1883;-54
2023/01/28 09:10:27;;;;;;;;;;;;;;;16.29;73.81;100859.22;7404218;19;1027;-53
2023/01/28 09:12:58;;;;;;;;;;;;;;;16.23;73.99;100870.34;7403826;19;2074;-52
2023/01/28 09:15:26;;;;;;;;;;;;;;;16.18;73.99;100870.72;7403978;19;1758;-53
2023/01/28 09:17:58;;;;;;;;;;;;;;;16.19;73.98;100866.22;7402541;19;2197;-53
2023/01/28 09:20:27;;;;;;;;;;;;;;;16.15;74.17;100867.41;7403868;19;1924;-54
2023/01/28 09:22:55;;;;;;;;;;;;;;;16.12;73.68;100851.66;7403504;19;1867;-53
2023/01/28 09:25:24;;;;;;;;;;;;;;;16.08;74.58;100867.03;7404109;19;1024;-53
2023/01/28 09:27:52;;;;;;;;;;;;;;;16.04;74.38;100874.41;7402068;19;2023;-54
2023/01/28 09:30:23;;;;;;;;;;;;;;;16.04;74.85;100849.56;7402186;19;1950;-53
2023/01/28 09:32:52;;;;;;;;;;;;;;;16.05;74.76;100867.25;7402386;19;1897;-53
2023/01/28 09:35:20;;;;;;;;;;;;;;;16.01;74.31;100874.59;7403424;19;1929;-53
2023/01/28 09:37:49;;;;;;;;;;;;;;;15.99;74.33;100859.69;7401345;19;1861;-53
2023/01/28 09:40:19;;;;;;;;;;;;;;;16.00;74.26;100858.75;7403155;19;1870;-53
2023/01/28 09:42:57;;;;;;;;;;;;;;;15.97;74.68;100858.97;7400960;19;2097;-53
2023/01/28 09:45:33;;;;;;;;;;;;;;;15.91;74.88;100855.75;7402795;19;1852;-53
2023/01/28 09:48:03;;;;;;;;;;;;;;;15.89;74.52;100857.69;7402781;19;1928;-53
2023/01/28 09:50:33;;;;;;;;;;;;;;;15.86;74.18;100863.28;7401843;19;2000;-53
2023/01/28 09:53:04;;;;;;;;;;;;;;;15.84;74.76;100881.19;7403114;19;1616;-53
2023/01/28 09:55:34;;;;;;;;;;;;;;;15.80;74.44;100871.72;7402473;19;1196;-53
2023/01/28 09:58:03;;;;;;;;;;;;;;;15.79;74.51;100866.50;7402274;19;2053;-54
2023/01/28 10:00:37;;;;;;;;;;;;;;;15.76;75.46;100870.25;7402759;19;1635;-54
2023/01/28 10:03:14;;;;;;;;;;;;;;;15.75;74.89;100879.19;7402169;19;2332;-53
2023/01/28 10:05:50;;;;;;;;;;;;;;;15.72;75.11;100876.72;7401786;19;2074;-53
2023/01/28 10:08:26;;;;;;;;;;;;;;;15.71;74.73;100877.69;7398502;19;1854;-53
2023/01/28 10:10:58;;;;;;;;;;;;;;;15.71;74.62;100877.69;7402066;19;1931;-53
2023/01/28 10:13:36;;;;;;;;;;;;;;;15.74;74.54;100885.50;7402122;19;1768;-53
2023/01/28 10:16:14;;;;;;;;;;;;;;;15.69;74.90;100884.94;7402475;19;2014;-53
2023/01/28 10:18:45;;;;;;;;;;;;;;;15.67;74.65;100884.19;7400769;19;1850;-53
2023/01/28 10:21:17;;;;;;;;;;;;;;;15.63;74.68;100862.25;7402831;19;1021;-53
2023/01/28 10:23:53;;;;;;;;;;;;;;;15.63;75.46;100874.72;7398801;19;2081;-53
2023/01/28 10:26:24;;;;;;;;;;;;;;;15.60;75.08;100872.28;7402100;19;1042;-53
2023/01/28 10:28:55;;;;;;;;;;;;;;;15.61;75.49;100884.66;7402062;19;1994;-53
2023/01/28 10:31:32;;;;;;;;;;;;;;;15.54;74.92;100886.91;7401613;19;2128;-53
2023/01/28 10:34:00;;;;;;;;;;;;;;;15.56;74.81;100892.97;7401204;19;2096;-53
2023/01/28 10:36:29;;;;;;;;;;;;;;;15.57;74.84;100878.69;7400776;19;2086;-53
2023/01/28 10:38:57;;;;;;;;;;;;;;;15.60;74.97;100885.63;7400706;19;2010;-54
2023/01/28 10:41:26;;;;;;;;;;;;;;;15.59;74.88;100887.41;7400858;19;2035;-54
2023/01/28 10:43:54;;;;;;;;;;;;;;;15.57;75.22;100888.50;7398417;19;1926;-53
2023/01/28 10:46:24;;;;;;;;;;;;;;;15.56;74.74;100881.44;7400187;19;1934;-53
2023/01/28 10:49:00;;;;;;;;;;;;;;;15.57;74.94;100880.50;7401156;19;1965;-53
2023/01/28 10:51:32;;;;;;;;;;;;;;;15.55;74.88;100890.41;7409659;19;1021;-54
2023/01/28 10:54:00;;;;;;;;;;;;;;;15.49;75.06;100881.88;7406086;19;1801;-53
2023/01/28 10:56:30;;;;;;;;;;;;;;;15.48;75.20;100882.03;7404301;19;1881;-53
2023/01/28 10:59:00;;;;;;;;;;;;;;;15.44;75.23;100881.38;7406486;19;1859;-53
2023/01/28 11:01:39;;;;;;;;;;;;;;;15.47;75.42;100885.63;7406002;19;1622;-53
2023/01/28 11:04:16;;;;;;;;;;;;;;;15.41;75.04;100878.91;7406945;19;1355;-53
2023/01/28 11:06:53;;;;;;;;;;;;;;;15.44;74.99;100889.38;7408496;19;970;-53
2023/01/28 11:09:22;;;;;;;;;;;;;;;15.44;75.42;100881.38;7404420;19;1947;-54
2023/01/28 11:11:51;;;;;;;;;;;;;;;15.45;75.17;100891.06;7406624;19;2197;-53
2023/01/28 11:14:24;;;;;;;;;;;;;;;15.51;75.12;100892.44;7406954;19;1931;-53
2023/01/28 11:16:53;;;;;;;;;;;;;;;15.41;75.14;100881.59;7406638;19;1775;-53
2023/01/28 11:19:27;;;;;;;;;;;;;;;15.39;75.41;100880.84;7405331;19;1842;-53
2023/01/28 11:21:58;;;;;;;;;;;;;;;15.35;75.37;100890.03;7408721;19;997;-53
2023/01/28 11:24:29;;;;;;;;;;;;;;;15.31;75.37;100878.72;7406655;19;2035;-53
2023/01/28 11:26:58;;;;;;;;;;;;;;;15.34;75.41;100893.66;7406005;19;1749;-53
2023/01/28 11:29:29;;;;;;;;;;;;;;;15.34;75.71;100876.78;7407569;19;1821;-53
2023/01/28 11:31:58;;;;;;;;;;;;;;;15.31;75.64;100873.38;7406145;19;1761;-53
2023/01/28 11:34:30;;;;;;;;;;;;;;;15.40;75.26;100865.69;7408338;19;1557;-54
2023/01/28 11:37:04;;;;;;;;;;;;;;;15.59;75.39;100883.91;7408391;19;2560;-53
2023/01/28 11:39:33;;;;;;;;;;;;;;;16.22;72.75;100888.19;7404343;19;2125;-53
2023/01/28 11:42:17;;;;;;;;;;;;;;;16.86;70.88;100862.94;7405738;19;1863;-53
2023/01/28 11:44:46;;;;;;;;;;;;;;;17.37;69.42;100861.59;7405286;19;2085;-53
2023/01/28 11:47:21;;;;;;;;;;;;;;;17.79;67.78;100867.16;7405881;19;1837;-52
2023/01/28 11:49:56;;;;;;;;;;;;;;;17.91;67.67;100854.63;7405026;19;1945;-53
2023/01/28 11:52:29;;;;;;;;;;;;;;;17.92;68.02;100861.69;7405862;19;1030;-53
2023/01/28 11:55:06;;;;;;;;;;;;;;;18.03;67.65;100854.47;7406157;19;2029;-54
2023/01/28 11:57:38;;;;;;;;;;;;;;;18.08;67.55;100854.94;7405763;19;2325;-54
2023/01/28 12:00:28;;;;;;;;;;;;;;;18.11;67.42;100850.31;7402569;19;1978;-52
2023/01/28 12:03:04;;;;;;;;;;;;;;;18.08;67.64;100848.72;7406179;19;2049;-52
2023/01/28 12:05:43;;;;;;;;;;;;;;;18.20;67.38;100852.19;7405294;19;1750;-53
2023/01/28 12:08:18;;;;;;;;;;;;;;;18.24;67.70;100846.50;7407386;19;1903;-53
2023/01/28 12:10:50;;;;;;;;;;;;;;;17.74;68.45;100847.94;7406617;19;1848;-53
2023/01/28 12:13:27;;;;;;;;;;;;;;;17.04;70.39;100841.94;7406874;19;1117;-52
2023/01/28 12:16:12;;;;;;;;;;;;;;;16.56;72.03;100858.09;7407118;19;1032;-53
2023/01/28 12:19:06;;;;;;;;;;;;;;;16.02;72.54;100870.16;7404660;19;1923;-54
2023/01/28 12:21:43;;;;;;;;;;;;;;;15.91;74.21;100866.44;7403604;19;2087;-54
2023/01/28 12:24:19;;;;;;;;;;;;;;;15.82;75.68;100877.78;7404227;19;2071;-53
2023/01/28 12:26:52;;;;;;;;;;;;;;;15.83;76.04;100866.16;7404175;19;1965;-53
2023/01/28 12:29:26;;;;;;;;;;;;;;;15.74;75.57;100864.16;7405932;19;1571;-54
2023/01/28 12:32:05;;;;;;;;;;;;;;;15.71;75.65;100869.69;7405758;19;1946;-54
2023/01/28 12:34:46;;;;;;;;;;;;;;;15.68;75.53;100864.59;7406137;19;1001;-53
2023/01/28 12:37:24;;;;;;;;;;;;;;;15.66;75.71;100847.84;7404724;19;1392;-53
2023/01/28 12:39:57;;;;;;;;;;;;;;;15.61;75.78;100853.50;7402730;19;2030;-53
2023/01/28 12:42:29;;;;;;;;;;;;;;;15.58;75.57;100859.06;7404586;19;1932;-55
2023/01/28 12:45:01;;;;;;;;;;;;;;;15.57;75.69;100862.69;7404082;19;1908;-54
2023/01/28 12:47:30;;;;;;;;;;;;;;;15.55;75.48;100867.28;7404917;19;1796;-53
2023/01/28 12:50:02;;;;;;;;;;;;;;;15.55;75.54;100874.44;7402533;19;2300;-53
2023/01/28 12:52:36;;;;;;;;;;;;;;;15.55;75.64;100879.75;7404986;19;963;-53
2023/01/28 12:55:13;;;;;;;;;;;;;;;15.49;75.91;100876.56;7403654;19;2050;-53
2023/01/28 12:57:42;;;;;;;;;;;;;;;15.50;75.85;100882.75;7404024;19;1902;-53
2023/01/28 13:00:20;;;;;;;;;;;;;;;15.49;75.72;100876.56;7403403;19;1974;-54
2023/01/28 13:02:53;;;;;;;;;;;;;;;15.43;76.31;100877.00;7403183;19;2079;-54
2023/01/28 13:05:24;;;;;;;;;;;;;;;15.45;75.64;100882.22;7403530;19;1780;-54
2023/01/28 13:08:00;;;;;;;;;;;;;;;15.42;75.84;100875.31;7404597;19;1042;-53
2023/01/28 13:10:30;;;;;;;;;;;;;;;15.44;75.84;100892.03;7404990;19;1015;-53
2023/01/28 13:13:00;;;;;;;;;;;;;;;15.42;76.89;100885.09;7404062;19;2057;-53
2023/01/28 13:15:28;;;;;;;;;;;;;;;15.39;75.72;100891.50;7404186;19;2081;-53
2023/01/28 13:17:57;;;;;;;;;;;;;;;15.37;76.08;100882.75;7403012;19;2037;-53
2023/01/28 13:20:46;;;;;;;;;;;;;;;15.36;75.67;100893.53;7402442;19;1955;-54
2023/01/28 13:23:26;;;;;;;;;;;;;;;15.32;75.66;100893.75;7399660;19;2026;-53
2023/01/28 13:25:56;;;;;;;;;;;;;;;15.30;75.94;100876.19;7403405;19;1026;-54
2023/01/28 13:28:28;;;;;;;;;;;;;;;15.27;76.34;100887.03;7402590;19;2088;-54
2023/01/28 13:31:02;;;;;;;;;;;;;;;15.27;76.25;100885.22;7403031;19;2043;-53
2023/01/28 13:33:32;;;;;;;;;;;;;;;15.25;75.81;100868.50;7401978;19;1967;-53
2023/01/28 13:36:03;;;;;;;;;;;;;;;15.23;75.67;100886.41;7402479;19;2024;-54
2023/01/28 13:38:35;;;;;;;;;;;;;;;15.24;76.44;100892.56;7399449;19;1886;-53
2023/01/28 13:41:05;;;;;;;;;;;;;;;15.26;75.87;100877.34;7402505;19;1932;-53
2023/01/28 13:43:38;;;;;;;;;;;;;;;15.22;75.69;100889.16;7403704;19;2199;-53
2023/01/28 13:46:08;;;;;;;;;;;;;;;15.32;76.40;100871.59;7402314;19;1935;-53